sensor_id;sensor_type;location;lat;lon;timestamp;P1;durP1;ratioP1;P2;durP2;ratioP2
5878;SDS011;2965;42.640;23.370;2023-07-29T04:02:05;5.00;;;4.70;;
5878;SDS011;2965;42.640;23.370;2023-07-29T04:04:31;5.20;;;4.90;;
5878;SDS011;2965;42.640;23.370;2023-07-29T04:06:56;5.70;;;5.40;;
5878;SDS011;2965;42.640;23.370;2023-07-29T04:09:22;4.43;;;4.27;;
5878;SDS011;2965;42.640;23.370;2023-07-29T04:11:48;5.37;;;5.07;;
5878;SDS011;2965;42.640;23.370;2023-07-29T04:14:13;10.73;;;5.60;;
5878;SDS011;2965;42.640;23.370;2023-07-29T04:16:38;5.37;;;4.97;;
5878;SDS011;2965;42.640;23.370;2023-07-29T04:19:04;6.30;;;5.77;;
5878;SDS011;2965;42.640;23.370;2023-07-29T04:21:29;4.53;;;4.33;;
5878;SDS011;2965;42.640;23.370;2023-07-29T04:23:54;6.03;;;5.53;;
5878;SDS011;2965;42.640;23.370;2023-07-29T04:26:20;6.30;;;5.80;;
5878;SDS011;2965;42.640;23.370;2023-07-29T04:28:45;5.03;;;4.83;;
5878;SDS011;2965;42.640;23.370;2023-07-29T04:31:11;5.73;;;5.20;;
5878;SDS011;2965;42.640;23.370;2023-07-29T04:33:36;7.23;;;5.90;;
5878;SDS011;2965;42.640;23.370;2023-07-29T04:36:01;8.07;;;6.30;;
5878;SDS011;2965;42.640;23.370;2023-07-29T04:38:29;6.07;;;5.67;;
5878;SDS011;2965;42.640;23.370;2023-07-29T04:40:57;5.97;;;5.47;;
5878;SDS011;2965;42.640;23.370;2023-07-29T04:43:26;9.27;;;5.00;;
5878;SDS011;2965;42.640;23.370;2023-07-29T04:45:53;6.83;;;6.10;;
5878;SDS011;2965;42.640;23.370;2023-07-29T04:48:18;6.03;;;5.63;;
5878;SDS011;2965;42.640;23.370;2023-07-29T04:50:43;6.00;;;5.50;;
5878;SDS011;2965;42.640;23.370;2023-07-29T04:53:09;6.47;;;6.07;;
5878;SDS011;2965;42.640;23.370;2023-07-29T04:55:34;4.83;;;4.53;;
5878;SDS011;2965;42.640;23.370;2023-07-29T04:57:59;5.77;;;5.43;;
5878;SDS011;2965;42.640;23.370;2023-07-29T05:00:25;5.73;;;5.43;;
5878;SDS011;2965;42.640;23.370;2023-07-29T05:02:50;5.43;;;5.03;;
5878;SDS011;2965;42.640;23.370;2023-07-29T05:05:16;14.73;;;5.87;;
5878;SDS011;2965;42.640;23.370;2023-07-29T05:07:41;5.27;;;4.97;;
5878;SDS011;2965;42.640;23.370;2023-07-29T05:10:07;4.60;;;4.40;;
5878;SDS011;2965;42.640;23.370;2023-07-29T05:12:33;4.80;;;4.60;;
5878;SDS011;2965;42.640;23.370;2023-07-29T05:14:58;6.00;;;5.60;;
5878;SDS011;2965;42.640;23.370;2023-07-29T05:17:23;5.90;;;5.60;;
5878;SDS011;2965;42.640;23.370;2023-07-29T05:19:49;6.47;;;6.07;;
5878;SDS011;2965;42.640;23.370;2023-07-29T05:22:14;5.43;;;5.10;;
5878;SDS011;2965;42.640;23.370;2023-07-29T05:24:39;6.50;;;6.00;;
5878;SDS011;2965;42.640;23.370;2023-07-29T05:27:05;5.13;;;4.73;;
5878;SDS011;2965;42.640;23.370;2023-07-29T05:29:30;7.53;;;5.60;;
5878;SDS011;2965;42.640;23.370;2023-07-29T05:31:56;5.50;;;5.10;;
5878;SDS011;2965;42.640;23.370;2023-07-29T05:34:22;5.23;;;4.77;;
5878;SDS011;2965;42.640;23.370;2023-07-29T05:36:47;5.70;;;5.40;;
5878;SDS011;2965;42.640;23.370;2023-07-29T05:39:13;5.73;;;5.43;;
5878;SDS011;2965;42.640;23.370;2023-07-29T05:41:38;7.97;;;5.13;;
5878;SDS011;2965;42.640;23.370;2023-07-29T05:44:04;6.20;;;5.67;;
5878;SDS011;2965;42.640;23.370;2023-07-29T05:46:29;6.17;;;5.80;;
5878;SDS011;2965;42.640;23.370;2023-07-29T05:48:55;5.73;;;5.43;;
5878;SDS011;2965;42.640;23.370;2023-07-29T05:51:20;5.47;;;5.20;;
5878;SDS011;2965;42.640;23.370;2023-07-29T05:53:45;6.03;;;5.73;;
5878;SDS011;2965;42.640;23.370;2023-07-29T05:56:11;6.43;;;6.03;;
5878;SDS011;2965;42.640;23.370;2023-07-29T05:58:36;6.13;;;5.80;;
5878;SDS011;2965;42.640;23.370;2023-07-29T06:01:01;6.07;;;5.70;;
5878;SDS011;2965;42.640;23.370;2023-07-29T06:03:27;5.60;;;5.30;;
5878;SDS011;2965;42.640;23.370;2023-07-29T06:05:53;5.53;;;5.23;;
5878;SDS011;2965;42.640;23.370;2023-07-29T06:08:19;6.10;;;5.70;;
5878;SDS011;2965;42.640;23.370;2023-07-29T06:10:44;5.83;;;5.50;;
5878;SDS011;2965;42.640;23.370;2023-07-29T06:13:10;6.40;;;5.80;;
5878;SDS011;2965;42.640;23.370;2023-07-29T06:15:35;5.47;;;5.00;;
5878;SDS011;2965;42.640;23.370;2023-07-29T06:18:01;5.83;;;5.20;;
5878;SDS011;2965;42.640;23.370;2023-07-29T06:20:26;5.90;;;5.60;;
5878;SDS011;2965;42.640;23.370;2023-07-29T06:22:51;19.13;;;11.00;;
5878;SDS011;2965;42.640;23.370;2023-07-29T06:25:17;5.87;;;5.57;;
5878;SDS011;2965;42.640;23.370;2023-07-29T06:27:42;5.50;;;5.20;;
5878;SDS011;2965;42.640;23.370;2023-07-29T06:30:08;6.07;;;5.77;;
5878;SDS011;2965;42.640;23.370;2023-07-29T06:32:34;6.87;;;6.27;;
5878;SDS011;2965;42.640;23.370;2023-07-29T06:34:59;9.10;;;6.70;;
5878;SDS011;2965;42.640;23.370;2023-07-29T06:37:25;6.77;;;6.30;;
5878;SDS011;2965;42.640;23.370;2023-07-29T06:39:50;10.03;;;5.37;;
5878;SDS011;2965;42.640;23.370;2023-07-29T06:42:16;6.33;;;6.00;;
5878;SDS011;2965;42.640;23.370;2023-07-29T06:44:41;6.03;;;5.73;;
5878;SDS011;2965;42.640;23.370;2023-07-29T06:47:06;7.07;;;6.37;;
5878;SDS011;2965;42.640;23.370;2023-07-29T06:49:32;5.63;;;5.43;;
5878;SDS011;2965;42.640;23.370;2023-07-29T06:51:57;6.03;;;5.70;;
5878;SDS011;2965;42.640;23.370;2023-07-29T06:54:26;6.23;;;5.67;;
5878;SDS011;2965;42.640;23.370;2023-07-29T06:56:51;5.20;;;5.00;;
5878;SDS011;2965;42.640;23.370;2023-07-29T06:59:17;6.30;;;5.70;;
5878;SDS011;2965;42.640;23.370;2023-07-29T07:01:43;6.60;;;6.10;;
5878;SDS011;2965;42.640;23.370;2023-07-29T07:04:08;5.80;;;5.40;;
5878;SDS011;2965;42.640;23.370;2023-07-29T07:06:33;5.80;;;5.30;;
5878;SDS011;2965;42.640;23.370;2023-07-29T07:08:59;6.23;;;5.73;;
5878;SDS011;2965;42.640;23.370;2023-07-29T07:11:24;5.13;;;4.93;;
5878;SDS011;2965;42.640;23.370;2023-07-29T07:13:49;5.57;;;5.27;;
5878;SDS011;2965;42.640;23.370;2023-07-29T07:16:15;5.97;;;5.60;;
5878;SDS011;2965;42.640;23.370;2023-07-29T07:18:40;5.30;;;4.90;;
5878;SDS011;2965;42.640;23.370;2023-07-29T07:21:06;6.27;;;5.63;;
5878;SDS011;2965;42.640;23.370;2023-07-29T07:23:31;5.03;;;4.73;;
5878;SDS011;2965;42.640;23.370;2023-07-29T07:25:56;6.47;;;6.07;;
5878;SDS011;2965;42.640;23.370;2023-07-29T07:28:22;5.77;;;5.57;;
5878;SDS011;2965;42.640;23.370;2023-07-29T07:30:47;6.30;;;5.50;;
5878;SDS011;2965;42.640;23.370;2023-07-29T07:33:13;5.30;;;4.97;;
5878;SDS011;2965;42.640;23.370;2023-07-29T07:35:38;7.43;;;5.90;;
5878;SDS011;2965;42.640;23.370;2023-07-29T07:38:04;6.23;;;5.60;;
5878;SDS011;2965;42.640;23.370;2023-07-29T07:40:33;5.40;;;5.20;;
5878;SDS011;2965;42.640;23.370;2023-07-29T07:42:58;5.83;;;5.53;;
5878;SDS011;2965;42.640;23.370;2023-07-29T07:45:24;5.80;;;5.43;;
5878;SDS011;2965;42.640;23.370;2023-07-29T07:47:51;6.27;;;5.70;;
5878;SDS011;2965;42.640;23.370;2023-07-29T07:50:17;6.77;;;6.20;;
5878;SDS011;2965;42.640;23.370;2023-07-29T07:52:42;6.50;;;6.10;;
5878;SDS011;2965;42.640;23.370;2023-07-29T07:55:08;6.70;;;6.17;;
5878;SDS011;2965;42.640;23.370;2023-07-29T07:57:33;10.90;;;6.60;;
5878;SDS011;2965;42.640;23.370;2023-07-29T07:59:59;8.00;;;7.20;;
5878;SDS011;2965;42.640;23.370;2023-07-29T08:02:24;5.83;;;5.43;;
5878;SDS011;2965;42.640;23.370;2023-07-29T08:04:49;10.90;;;6.70;;
5878;SDS011;2965;42.640;23.370;2023-07-29T08:07:15;6.77;;;6.30;;
5878;SDS011;2965;42.640;23.370;2023-07-29T08:09:40;11.30;;;6.23;;
5878;SDS011;2965;42.640;23.370;2023-07-29T08:12:05;11.90;;;6.63;;
5878;SDS011;2965;42.640;23.370;2023-07-29T08:14:31;8.50;;;6.63;;
5878;SDS011;2965;42.640;23.370;2023-07-29T08:16:56;6.20;;;5.60;;
5878;SDS011;2965;42.640;23.370;2023-07-29T08:19:22;14.17;;;5.87;;
5878;SDS011;2965;42.640;23.370;2023-07-29T08:21:47;14.00;;;5.97;;
5878;SDS011;2965;42.640;23.370;2023-07-29T08:24:13;6.17;;;5.67;;
5878;SDS011;2965;42.640;23.370;2023-07-29T08:26:38;9.53;;;5.70;;
5878;SDS011;2965;42.640;23.370;2023-07-29T08:29:04;7.53;;;6.00;;
5878;SDS011;2965;42.640;23.370;2023-07-29T08:31:29;5.33;;;4.93;;
5878;SDS011;2965;42.640;23.370;2023-07-29T08:33:55;5.07;;;4.77;;
5878;SDS011;2965;42.640;23.370;2023-07-29T08:36:21;4.63;;;4.43;;
5878;SDS011;2965;42.640;23.370;2023-07-29T08:38:46;10.33;;;5.17;;
5878;SDS011;2965;42.640;23.370;2023-07-29T08:46:51;4.40;;;4.20;;
5878;SDS011;2965;42.640;23.370;2023-07-29T08:49:18;7.03;;;3.97;;
5878;SDS011;2965;42.640;23.370;2023-07-29T08:51:45;8.93;;;5.07;;
5878;SDS011;2965;42.640;23.370;2023-07-29T08:54:12;8.10;;;4.40;;
5878;SDS011;2965;42.640;23.370;2023-07-29T08:56:40;11.60;;;4.07;;
5878;SDS011;2965;42.640;23.370;2023-07-29T08:59:06;10.57;;;4.60;;
5878;SDS011;2965;42.640;23.370;2023-07-29T09:01:32;17.83;;;5.20;;
5878;SDS011;2965;42.640;23.370;2023-07-29T09:03:58;3.50;;;3.40;;
5878;SDS011;2965;42.640;23.370;2023-07-29T09:06:24;3.60;;;3.50;;
5878;SDS011;2965;42.640;23.370;2023-07-29T09:08:51;4.20;;;4.10;;
5878;SDS011;2965;42.640;23.370;2023-07-29T09:11:18;6.40;;;3.43;;
5878;SDS011;2965;42.640;23.370;2023-07-29T09:13:44;3.03;;;2.73;;
5878;SDS011;2965;42.640;23.370;2023-07-29T09:18:40;3.10;;;2.00;;
5878;SDS011;2965;42.640;23.370;2023-07-29T09:21:06;7.00;;;1.47;;
5878;SDS011;2965;42.640;23.370;2023-07-29T09:23:43;1.97;;;1.87;;
5878;SDS011;2965;42.640;23.370;2023-07-29T09:26:09;1.00;;;1.00;;
5878;SDS011;2965;42.640;23.370;2023-07-29T09:28:36;1.20;;;1.20;;
5878;SDS011;2965;42.640;23.370;2023-07-29T09:31:03;1.90;;;1.80;;
5878;SDS011;2965;42.640;23.370;2023-07-29T09:33:29;4.30;;;1.90;;
5878;SDS011;2965;42.640;23.370;2023-07-29T09:35:56;2.50;;;2.17;;
5878;SDS011;2965;42.640;23.370;2023-07-29T09:38:28;2.70;;;2.50;;
5878;SDS011;2965;42.640;23.370;2023-07-29T09:40:57;4.63;;;4.23;;
5878;SDS011;2965;42.640;23.370;2023-07-29T09:43:28;2.60;;;2.40;;
5878;SDS011;2965;42.640;23.370;2023-07-29T09:45:55;3.00;;;2.90;;
5878;SDS011;2965;42.640;23.370;2023-07-29T09:48:23;2.20;;;2.10;;
5878;SDS011;2965;42.640;23.370;2023-07-29T09:50:49;2.93;;;2.77;;
5878;SDS011;2965;42.640;23.370;2023-07-29T09:53:14;2.53;;;2.43;;
5878;SDS011;2965;42.640;23.370;2023-07-29T09:55:40;2.70;;;2.50;;
5878;SDS011;2965;42.640;23.370;2023-07-29T09:58:13;2.93;;;1.83;;
5878;SDS011;2965;42.640;23.370;2023-07-29T10:00:38;2.40;;;1.83;;
5878;SDS011;2965;42.640;23.370;2023-07-29T10:03:05;3.33;;;2.10;;
5878;SDS011;2965;42.640;23.370;2023-07-29T10:05:31;2.70;;;2.20;;
5878;SDS011;2965;42.640;23.370;2023-07-29T10:07:59;8.93;;;2.60;;
5878;SDS011;2965;42.640;23.370;2023-07-29T10:10:25;7.30;;;2.33;;
5878;SDS011;2965;42.640;23.370;2023-07-29T10:12:52;3.10;;;2.13;;
5878;SDS011;2965;42.640;23.370;2023-07-29T10:15:19;2.23;;;2.13;;
5878;SDS011;2965;42.640;23.370;2023-07-29T10:17:46;2.70;;;2.60;;
5878;SDS011;2965;42.640;23.370;2023-07-29T10:20:12;2.90;;;2.67;;
5878;SDS011;2965;42.640;23.370;2023-07-29T10:22:38;2.20;;;2.10;;
5878;SDS011;2965;42.640;23.370;2023-07-29T10:25:07;3.03;;;2.60;;
5878;SDS011;2965;42.640;23.370;2023-07-29T10:27:43;9.73;;;2.90;;
5878;SDS011;2965;42.640;23.370;2023-07-29T10:30:28;2.37;;;2.27;;
5878;SDS011;2965;42.640;23.370;2023-07-29T10:32:55;2.10;;;1.80;;
5878;SDS011;2965;42.640;23.370;2023-07-29T10:35:23;2.30;;;2.20;;
5878;SDS011;2965;42.640;23.370;2023-07-29T10:37:50;2.10;;;2.00;;
5878;SDS011;2965;42.640;23.370;2023-07-29T10:40:18;1.80;;;1.70;;
5878;SDS011;2965;42.640;23.370;2023-07-29T10:46:14;1.93;;;1.83;;
5878;SDS011;2965;42.640;23.370;2023-07-29T10:54:00;6.93;;;1.80;;
5878;SDS011;2965;42.640;23.370;2023-07-29T10:56:34;1.60;;;1.50;;
5878;SDS011;2965;42.640;23.370;2023-07-29T11:01:57;1.50;;;1.50;;
5878;SDS011;2965;42.640;23.370;2023-07-29T11:04:24;3.90;;;1.73;;
5878;SDS011;2965;42.640;23.370;2023-07-29T11:09:39;4.23;;;1.40;;
5878;SDS011;2965;42.640;23.370;2023-07-29T11:15:03;2.10;;;2.00;;
5878;SDS011;2965;42.640;23.370;2023-07-29T11:17:34;2.13;;;2.03;;
5878;SDS011;2965;42.640;23.370;2023-07-29T11:20:01;2.00;;;1.90;;
5878;SDS011;2965;42.640;23.370;2023-07-29T11:22:28;1.53;;;1.43;;
5878;SDS011;2965;42.640;23.370;2023-07-29T11:24:54;1.70;;;1.70;;
5878;SDS011;2965;42.640;23.370;2023-07-29T11:27:19;1.90;;;1.83;;
5878;SDS011;2965;42.640;23.370;2023-07-29T11:29:46;2.30;;;1.40;;
5878;SDS011;2965;42.640;23.370;2023-07-29T11:32:11;1.70;;;1.60;;
5878;SDS011;2965;42.640;23.370;2023-07-29T11:34:37;2.27;;;2.17;;
5878;SDS011;2965;42.640;23.370;2023-07-29T11:37:05;1.90;;;1.80;;
5878;SDS011;2965;42.640;23.370;2023-07-29T11:39:31;2.20;;;2.10;;
5878;SDS011;2965;42.640;23.370;2023-07-29T11:41:57;1.83;;;1.73;;
5878;SDS011;2965;42.640;23.370;2023-07-29T11:44:23;2.37;;;1.90;;
5878;SDS011;2965;42.640;23.370;2023-07-29T11:46:50;1.50;;;1.40;;
5878;SDS011;2965;42.640;23.370;2023-07-29T11:49:15;1.50;;;1.50;;
5878;SDS011;2965;42.640;23.370;2023-07-29T11:51:41;1.33;;;1.33;;
5878;SDS011;2965;42.640;23.370;2023-07-29T11:54:06;1.73;;;1.63;;
5878;SDS011;2965;42.640;23.370;2023-07-29T11:56:33;1.90;;;1.80;;
5878;SDS011;2965;42.640;23.370;2023-07-29T11:58:59;2.40;;;1.93;;
5878;SDS011;2965;42.640;23.370;2023-07-29T12:01:24;2.60;;;1.90;;
5878;SDS011;2965;42.640;23.370;2023-07-29T12:03:50;2.10;;;2.00;;
5878;SDS011;2965;42.640;23.370;2023-07-29T12:06:16;1.60;;;1.60;;
5878;SDS011;2965;42.640;23.370;2023-07-29T12:08:42;1.80;;;1.70;;
5878;SDS011;2965;42.640;23.370;2023-07-29T12:11:08;1.80;;;1.80;;
5878;SDS011;2965;42.640;23.370;2023-07-29T12:13:36;1.80;;;1.80;;
5878;SDS011;2965;42.640;23.370;2023-07-29T12:16:02;1.53;;;1.53;;
5878;SDS011;2965;42.640;23.370;2023-07-29T12:18:31;1.90;;;1.80;;
5878;SDS011;2965;42.640;23.370;2023-07-29T12:20:58;1.40;;;1.40;;
5878;SDS011;2965;42.640;23.370;2023-07-29T12:23:24;1.53;;;1.53;;
5878;SDS011;2965;42.640;23.370;2023-07-29T12:25:51;2.53;;;1.83;;
5878;SDS011;2965;42.640;23.370;2023-07-29T12:28:22;2.30;;;1.50;;
5878;SDS011;2965;42.640;23.370;2023-07-29T12:30:47;1.67;;;1.57;;
5878;SDS011;2965;42.640;23.370;2023-07-29T12:33:28;1.70;;;1.70;;
5878;SDS011;2965;42.640;23.370;2023-07-29T12:35:57;3.03;;;1.50;;
5878;SDS011;2965;42.640;23.370;2023-07-29T12:38:25;1.43;;;1.40;;
5878;SDS011;2965;42.640;23.370;2023-07-29T12:40:51;1.60;;;1.50;;
5878;SDS011;2965;42.640;23.370;2023-07-29T12:43:16;1.30;;;1.30;;
5878;SDS011;2965;42.640;23.370;2023-07-29T12:45:42;1.13;;;1.13;;
5878;SDS011;2965;42.640;23.370;2023-07-29T12:48:08;1.40;;;1.40;;
5878;SDS011;2965;42.640;23.370;2023-07-29T12:50:34;2.10;;;2.00;;
5878;SDS011;2965;42.640;23.370;2023-07-29T12:53:00;1.80;;;1.70;;
5878;SDS011;2965;42.640;23.370;2023-07-29T12:55:25;1.80;;;1.70;;
5878;SDS011;2965;42.640;23.370;2023-07-29T12:57:50;1.67;;;1.67;;
5878;SDS011;2965;42.640;23.370;2023-07-29T13:00:16;1.43;;;1.43;;
5878;SDS011;2965;42.640;23.370;2023-07-29T13:02:42;1.87;;;1.77;;
5878;SDS011;2965;42.640;23.370;2023-07-29T13:05:10;1.70;;;1.67;;
5878;SDS011;2965;42.640;23.370;2023-07-29T13:07:39;1.37;;;1.37;;
5878;SDS011;2965;42.640;23.370;2023-07-29T13:10:05;1.57;;;1.57;;
5878;SDS011;2965;42.640;23.370;2023-07-29T13:12:31;1.90;;;1.80;;
5878;SDS011;2965;42.640;23.370;2023-07-29T13:14:57;2.20;;;2.10;;
5878;SDS011;2965;42.640;23.370;2023-07-29T13:17:22;1.93;;;1.83;;
5878;SDS011;2965;42.640;23.370;2023-07-29T13:19:48;2.00;;;1.90;;
5878;SDS011;2965;42.640;23.370;2023-07-29T13:22:14;2.10;;;2.00;;
5878;SDS011;2965;42.640;23.370;2023-07-29T13:24:39;2.13;;;2.03;;
5878;SDS011;2965;42.640;23.370;2023-07-29T13:27:04;2.10;;;2.00;;
5878;SDS011;2965;42.640;23.370;2023-07-29T13:29:30;2.03;;;1.93;;
5878;SDS011;2965;42.640;23.370;2023-07-29T13:31:55;2.03;;;1.93;;
5878;SDS011;2965;42.640;23.370;2023-07-29T13:34:21;2.97;;;1.70;;
5878;SDS011;2965;42.640;23.370;2023-07-29T13:36:46;1.83;;;1.80;;
5878;SDS011;2965;42.640;23.370;2023-07-29T13:39:12;1.40;;;1.30;;
5878;SDS011;2965;42.640;23.370;2023-07-29T13:41:38;1.40;;;1.40;;
5878;SDS011;2965;42.640;23.370;2023-07-29T13:44:03;1.63;;;1.63;;
5878;SDS011;2965;42.640;23.370;2023-07-29T13:46:29;1.80;;;1.70;;
5878;SDS011;2965;42.640;23.370;2023-07-29T13:48:54;2.60;;;1.60;;
5878;SDS011;2965;42.640;23.370;2023-07-29T13:51:19;2.30;;;2.20;;
5878;SDS011;2965;42.640;23.370;2023-07-29T13:53:45;1.60;;;1.60;;
5878;SDS011;2965;42.640;23.370;2023-07-29T13:56:10;2.27;;;2.17;;
5878;SDS011;2965;42.640;23.370;2023-07-29T13:58:36;2.10;;;2.00;;
5878;SDS011;2965;42.640;23.370;2023-07-29T14:01:01;1.80;;;1.80;;
5878;SDS011;2965;42.640;23.370;2023-07-29T14:03:27;2.23;;;2.13;;
5878;SDS011;2965;42.640;23.370;2023-07-29T14:05:52;1.63;;;1.63;;
5878;SDS011;2965;42.640;23.370;2023-07-29T14:08:17;1.80;;;1.70;;
5878;SDS011;2965;42.640;23.370;2023-07-29T14:10:43;2.37;;;2.27;;
5878;SDS011;2965;42.640;23.370;2023-07-29T14:13:08;2.00;;;1.90;;
5878;SDS011;2965;42.640;23.370;2023-07-29T14:15:33;2.17;;;2.07;;
5878;SDS011;2965;42.640;23.370;2023-07-29T14:17:59;2.10;;;2.00;;
5878;SDS011;2965;42.640;23.370;2023-07-29T14:20:24;2.30;;;2.20;;
5878;SDS011;2965;42.640;23.370;2023-07-29T14:22:50;2.27;;;2.17;;
5878;SDS011;2965;42.640;23.370;2023-07-29T14:25:15;2.60;;;2.40;;
5878;SDS011;2965;42.640;23.370;2023-07-29T14:27:40;1.93;;;1.93;;
5878;SDS011;2965;42.640;23.370;2023-07-29T14:30:06;2.03;;;1.90;;
5878;SDS011;2965;42.640;23.370;2023-07-29T14:32:32;1.63;;;1.63;;
5878;SDS011;2965;42.640;23.370;2023-07-29T14:34:58;1.70;;;1.63;;
5878;SDS011;2965;42.640;23.370;2023-07-29T14:37:25;1.90;;;1.73;;
5878;SDS011;2965;42.640;23.370;2023-07-29T14:39:50;1.97;;;1.87;;
5878;SDS011;2965;42.640;23.370;2023-07-29T14:42:16;2.20;;;1.47;;
5878;SDS011;2965;42.640;23.370;2023-07-29T14:44:42;2.07;;;1.97;;
5878;SDS011;2965;42.640;23.370;2023-07-29T14:47:07;1.73;;;1.73;;
5878;SDS011;2965;42.640;23.370;2023-07-29T14:49:33;1.70;;;1.70;;
5878;SDS011;2965;42.640;23.370;2023-07-29T14:51:58;2.20;;;2.10;;
5878;SDS011;2965;42.640;23.370;2023-07-29T14:54:24;1.50;;;1.50;;
5878;SDS011;2965;42.640;23.370;2023-07-29T14:56:49;1.43;;;1.43;;
5878;SDS011;2965;42.640;23.370;2023-07-29T14:59:15;1.80;;;1.70;;
5878;SDS011;2965;42.640;23.370;2023-07-29T15:01:40;1.80;;;1.70;;
5878;SDS011;2965;42.640;23.370;2023-07-29T15:04:06;2.00;;;1.60;;
5878;SDS011;2965;42.640;23.370;2023-07-29T15:06:31;1.90;;;1.80;;
5878;SDS011;2965;42.640;23.370;2023-07-29T15:08:56;1.70;;;1.70;;
5878;SDS011;2965;42.640;23.370;2023-07-29T15:11:22;2.03;;;1.93;;
5878;SDS011;2965;42.640;23.370;2023-07-29T15:13:47;2.87;;;1.60;;
5878;SDS011;2965;42.640;23.370;2023-07-29T15:16:12;2.20;;;2.10;;
5878;SDS011;2965;42.640;23.370;2023-07-29T15:18:38;1.53;;;1.53;;
5878;SDS011;2965;42.640;23.370;2023-07-29T15:21:03;1.40;;;1.40;;
5878;SDS011;2965;42.640;23.370;2023-07-29T15:23:29;2.43;;;2.33;;
5878;SDS011;2965;42.640;23.370;2023-07-29T15:25:55;2.17;;;2.07;;
5878;SDS011;2965;42.640;23.370;2023-07-29T15:28:21;1.70;;;1.70;;
5878;SDS011;2965;42.640;23.370;2023-07-29T15:30:47;1.57;;;1.50;;
5878;SDS011;2965;42.640;23.370;2023-07-29T15:33:12;2.07;;;1.97;;
5878;SDS011;2965;42.640;23.370;2023-07-29T15:35:38;2.73;;;1.97;;
5878;SDS011;2965;42.640;23.370;2023-07-29T15:38:04;2.30;;;2.20;;
5878;SDS011;2965;42.640;23.370;2023-07-29T15:40:30;2.33;;;2.13;;
5878;SDS011;2965;42.640;23.370;2023-07-29T15:42:56;2.20;;;2.10;;
5878;SDS011;2965;42.640;23.370;2023-07-29T15:45:21;3.60;;;2.00;;
5878;SDS011;2965;42.640;23.370;2023-07-29T15:47:46;1.93;;;1.83;;
5878;SDS011;2965;42.640;23.370;2023-07-29T15:50:12;2.20;;;2.10;;
5878;SDS011;2965;42.640;23.370;2023-07-29T15:52:37;2.20;;;2.10;;
5878;SDS011;2965;42.640;23.370;2023-07-29T15:55:07;2.00;;;1.90;;
5878;SDS011;2965;42.640;23.370;2023-07-29T15:57:33;2.00;;;1.90;;
5878;SDS011;2965;42.640;23.370;2023-07-29T15:59:58;2.13;;;2.03;;
5878;SDS011;2965;42.640;23.370;2023-07-29T16:02:24;2.20;;;2.13;;
5878;SDS011;2965;42.640;23.370;2023-07-29T16:04:49;2.30;;;2.20;;
5878;SDS011;2965;42.640;23.370;2023-07-29T16:07:15;2.30;;;2.20;;
5878;SDS011;2965;42.640;23.370;2023-07-29T16:09:40;3.90;;;2.10;;
5878;SDS011;2965;42.640;23.370;2023-07-29T16:12:06;2.60;;;2.50;;
5878;SDS011;2965;42.640;23.370;2023-07-29T16:14:31;2.13;;;2.00;;
5878;SDS011;2965;42.640;23.370;2023-07-29T16:16:57;2.27;;;2.17;;
5878;SDS011;2965;42.640;23.370;2023-07-29T16:19:23;2.43;;;2.33;;
5878;SDS011;2965;42.640;23.370;2023-07-29T16:21:51;2.10;;;2.10;;
5878;SDS011;2965;42.640;23.370;2023-07-29T16:24:17;2.37;;;1.70;;
5878;SDS011;2965;42.640;23.370;2023-07-29T16:26:42;2.23;;;2.13;;
5878;SDS011;2965;42.640;23.370;2023-07-29T16:29:08;1.97;;;1.87;;
5878;SDS011;2965;42.640;23.370;2023-07-29T16:31:33;2.37;;;2.10;;
5878;SDS011;2965;42.640;23.370;2023-07-29T16:34:00;2.43;;;2.33;;
5878;SDS011;2965;42.640;23.370;2023-07-29T16:36:25;2.20;;;2.10;;
5878;SDS011;2965;42.640;23.370;2023-07-29T16:38:50;2.50;;;2.40;;
5878;SDS011;2965;42.640;23.370;2023-07-29T16:41:16;2.60;;;2.10;;
5878;SDS011;2965;42.640;23.370;2023-07-29T16:43:41;2.97;;;2.13;;
5878;SDS011;2965;42.640;23.370;2023-07-29T16:46:06;2.60;;;2.50;;
5878;SDS011;2965;42.640;23.370;2023-07-29T16:48:32;3.27;;;2.33;;
5878;SDS011;2965;42.640;23.370;2023-07-29T16:50:57;2.40;;;2.30;;
5878;SDS011;2965;42.640;23.370;2023-07-29T16:53:23;2.13;;;2.03;;
5878;SDS011;2965;42.640;23.370;2023-07-29T16:55:48;2.37;;;2.27;;
5878;SDS011;2965;42.640;23.370;2023-07-29T16:58:13;2.07;;;1.97;;
5878;SDS011;2965;42.640;23.370;2023-07-29T17:00:40;1.90;;;1.80;;
5878;SDS011;2965;42.640;23.370;2023-07-29T17:03:05;2.10;;;2.00;;
5878;SDS011;2965;42.640;23.370;2023-07-29T17:05:30;2.43;;;2.30;;
5878;SDS011;2965;42.640;23.370;2023-07-29T17:07:56;8.00;;;2.20;;
5878;SDS011;2965;42.640;23.370;2023-07-29T17:10:21;1.80;;;1.70;;
5878;SDS011;2965;42.640;23.370;2023-07-29T17:12:46;2.30;;;2.20;;
5878;SDS011;2965;42.640;23.370;2023-07-29T17:15:12;2.07;;;1.50;;
5878;SDS011;2965;42.640;23.370;2023-07-29T17:17:38;1.87;;;1.77;;
5878;SDS011;2965;42.640;23.370;2023-07-29T17:20:04;1.80;;;1.70;;
5878;SDS011;2965;42.640;23.370;2023-07-29T17:22:30;5.63;;;2.33;;
5878;SDS011;2965;42.640;23.370;2023-07-29T17:25:00;1.90;;;1.80;;
5878;SDS011;2965;42.640;23.370;2023-07-29T17:27:26;1.93;;;1.83;;
5878;SDS011;2965;42.640;23.370;2023-07-29T17:29:51;2.90;;;1.90;;
5878;SDS011;2965;42.640;23.370;2023-07-29T17:32:16;2.40;;;2.30;;
5878;SDS011;2965;42.640;23.370;2023-07-29T17:34:42;4.50;;;3.00;;
5878;SDS011;2965;42.640;23.370;2023-07-29T17:37:07;2.47;;;2.37;;
5878;SDS011;2965;42.640;23.370;2023-07-29T17:39:33;2.73;;;2.63;;
5878;SDS011;2965;42.640;23.370;2023-07-29T17:41:58;2.90;;;2.80;;
5878;SDS011;2965;42.640;23.370;2023-07-29T17:44:23;2.80;;;2.70;;
5878;SDS011;2965;42.640;23.370;2023-07-29T17:46:49;2.70;;;2.60;;
5878;SDS011;2965;42.640;23.370;2023-07-29T17:49:14;9.40;;;2.97;;
5878;SDS011;2965;42.640;23.370;2023-07-29T17:51:39;3.60;;;3.37;;
5878;SDS011;2965;42.640;23.370;2023-07-29T17:54:05;3.77;;;3.57;;
5878;SDS011;2965;42.640;23.370;2023-07-29T17:56:30;3.23;;;3.03;;
5878;SDS011;2965;42.640;23.370;2023-07-29T17:58:55;3.50;;;3.00;;
5878;SDS011;2965;42.640;23.370;2023-07-29T18:01:21;3.60;;;3.40;;
5878;SDS011;2965;42.640;23.370;2023-07-29T18:03:46;3.80;;;2.77;;
5878;SDS011;2965;42.640;23.370;2023-07-29T18:06:12;3.50;;;3.30;;
5878;SDS011;2965;42.640;23.370;2023-07-29T18:08:38;3.57;;;2.60;;
5878;SDS011;2965;42.640;23.370;2023-07-29T18:11:04;4.07;;;3.70;;
5878;SDS011;2965;42.640;23.370;2023-07-29T18:13:30;4.53;;;2.80;;
5878;SDS011;2965;42.640;23.370;2023-07-29T18:15:56;4.47;;;4.07;;
5878;SDS011;2965;42.640;23.370;2023-07-29T18:18:23;3.23;;;3.13;;
5878;SDS011;2965;42.640;23.370;2023-07-29T18:20:48;3.17;;;3.07;;
5878;SDS011;2965;42.640;23.370;2023-07-29T18:23:14;2.90;;;2.80;;
5878;SDS011;2965;42.640;23.370;2023-07-29T18:25:40;3.33;;;3.23;;
5878;SDS011;2965;42.640;23.370;2023-07-29T18:28:07;3.53;;;3.23;;
5878;SDS011;2965;42.640;23.370;2023-07-29T18:30:33;2.80;;;2.70;;
5878;SDS011;2965;42.640;23.370;2023-07-29T18:32:59;2.70;;;2.60;;
5878;SDS011;2965;42.640;23.370;2023-07-29T18:35:28;3.10;;;3.00;;
5878;SDS011;2965;42.640;23.370;2023-07-29T18:37:54;3.40;;;3.10;;
5878;SDS011;2965;42.640;23.370;2023-07-29T18:40:23;3.20;;;3.10;;
5878;SDS011;2965;42.640;23.370;2023-07-29T18:42:49;3.17;;;2.87;;
5878;SDS011;2965;42.640;23.370;2023-07-29T18:45:14;3.47;;;3.37;;
5878;SDS011;2965;42.640;23.370;2023-07-29T18:47:39;3.13;;;3.03;;
5878;SDS011;2965;42.640;23.370;2023-07-29T18:50:05;2.83;;;2.73;;
5878;SDS011;2965;42.640;23.370;2023-07-29T18:52:31;2.63;;;2.53;;
5878;SDS011;2965;42.640;23.370;2023-07-29T18:54:56;2.90;;;2.80;;
5878;SDS011;2965;42.640;23.370;2023-07-29T18:57:25;3.43;;;3.13;;
5878;SDS011;2965;42.640;23.370;2023-07-29T18:59:50;2.80;;;2.70;;
5878;SDS011;2965;42.640;23.370;2023-07-29T19:02:16;3.87;;;3.10;;
5878;SDS011;2965;42.640;23.370;2023-07-29T19:04:41;2.70;;;2.60;;
5878;SDS011;2965;42.640;23.370;2023-07-29T19:07:12;4.40;;;3.60;;
5878;SDS011;2965;42.640;23.370;2023-07-29T19:09:41;3.60;;;3.40;;
5878;SDS011;2965;42.640;23.370;2023-07-29T19:12:07;2.97;;;2.87;;
5878;SDS011;2965;42.640;23.370;2023-07-29T19:14:33;3.47;;;3.17;;
5878;SDS011;2965;42.640;23.370;2023-07-29T19:16:59;2.80;;;2.70;;
5878;SDS011;2965;42.640;23.370;2023-07-29T19:19:24;3.63;;;3.40;;